sensor_id;sensor_type;location;lat;lon;timestamp;temperature;humidity
7360;DHT22;3720;48.274;7.796;2023-06-14T00:02:26;17.90;74.70
7360;DHT22;3720;48.274;7.796;2023-06-14T00:04:58;17.80;76.30
7360;DHT22;3720;48.274;7.796;2023-06-14T00:07:35;17.70;75.90
7360;DHT22;3720;48.274;7.796;2023-06-14T00:10:07;17.60;77.40
7360;DHT22;3720;48.274;7.796;2023-06-14T00:12:41;17.50;78.60
7360;DHT22;3720;48.274;7.796;2023-06-14T00:15:13;17.50;80.30
7360;DHT22;3720;48.274;7.796;2023-06-14T00:17:45;17.40;81.30
7360;DHT22;3720;48.274;7.796;2023-06-14T00:20:18;17.30;81.30
7360;DHT22;3720;48.274;7.796;2023-06-14T00:22:50;17.40;82.30
7360;DHT22;3720;48.274;7.796;2023-06-14T00:25:23;17.30;83.80
7360;DHT22;3720;48.274;7.796;2023-06-14T00:27:57;17.20;84.20
7360;DHT22;3720;48.274;7.796;2023-06-14T00:30:29;17.20;87.90
7360;DHT22;3720;48.274;7.796;2023-06-14T00:33:01;17.20;88.00
7360;DHT22;3720;48.274;7.796;2023-06-14T00:35:33;17.20;89.20
7360;DHT22;3720;48.274;7.796;2023-06-14T00:38:05;17.20;88.00
7360;DHT22;3720;48.274;7.796;2023-06-14T00:40:37;17.20;89.90
7360;DHT22;3720;48.274;7.796;2023-06-14T00:43:10;17.20;89.30
7360;DHT22;3720;48.274;7.796;2023-06-14T00:45:42;17.10;89.90
7360;DHT22;3720;48.274;7.796;2023-06-14T00:48:15;17.20;89.90
7360;DHT22;3720;48.274;7.796;2023-06-14T00:50:48;17.10;90.30
7360;DHT22;3720;48.274;7.796;2023-06-14T00:53:21;17.10;91.10
7360;DHT22;3720;48.274;7.796;2023-06-14T00:55:53;16.90;91.40
7360;DHT22;3720;48.274;7.796;2023-06-14T00:58:27;16.90;92.60
7360;DHT22;3720;48.274;7.796;2023-06-14T01:00:59;16.90;92.90
7360;DHT22;3720;48.274;7.796;2023-06-14T01:03:31;16.80;92.70
7360;DHT22;3720;48.274;7.796;2023-06-14T01:06:13;16.80;92.60
7360;DHT22;3720;48.274;7.796;2023-06-14T01:09:00;16.70;92.40
7360;DHT22;3720;48.274;7.796;2023-06-14T01:11:39;16.70;92.80
7360;DHT22;3720;48.274;7.796;2023-06-14T01:14:14;16.60;92.20
7360;DHT22;3720;48.274;7.796;2023-06-14T01:16:48;16.60;92.90
7360;DHT22;3720;48.274;7.796;2023-06-14T01:19:23;16.50;93.40
7360;DHT22;3720;48.274;7.796;2023-06-14T01:21:56;16.50;94.00
7360;DHT22;3720;48.274;7.796;2023-06-14T01:24:30;16.50;93.80
7360;DHT22;3720;48.274;7.796;2023-06-14T01:27:05;16.60;93.40
7360;DHT22;3720;48.274;7.796;2023-06-14T01:29:37;16.70;93.60
7360;DHT22;3720;48.274;7.796;2023-06-14T01:32:09;16.80;93.80
7360;DHT22;3720;48.274;7.796;2023-06-14T01:34:42;16.80;93.40
7360;DHT22;3720;48.274;7.796;2023-06-14T01:37:14;16.80;93.30
7360;DHT22;3720;48.274;7.796;2023-06-14T01:39:48;16.80;93.60
7360;DHT22;3720;48.274;7.796;2023-06-14T01:42:21;16.80;93.70
7360;DHT22;3720;48.274;7.796;2023-06-14T01:44:56;16.80;93.00
7360;DHT22;3720;48.274;7.796;2023-06-14T01:47:28;16.70;93.60
7360;DHT22;3720;48.274;7.796;2023-06-14T01:50:01;16.80;94.40
7360;DHT22;3720;48.274;7.796;2023-06-14T01:52:33;16.70;94.20
7360;DHT22;3720;48.274;7.796;2023-06-14T01:55:08;16.80;95.00
7360;DHT22;3720;48.274;7.796;2023-06-14T01:57:40;16.70;95.70
7360;DHT22;3720;48.274;7.796;2023-06-14T02:00:13;16.70;96.10
7360;DHT22;3720;48.274;7.796;2023-06-14T02:02:46;16.50;97.10
7360;DHT22;3720;48.274;7.796;2023-06-14T02:05:18;16.50;98.10
7360;DHT22;3720;48.274;7.796;2023-06-14T02:07:50;16.50;98.90
7360;DHT22;3720;48.274;7.796;2023-06-14T02:10:23;16.50;99.40
7360;DHT22;3720;48.274;7.796;2023-06-14T02:12:56;16.40;99.70
7360;DHT22;3720;48.274;7.796;2023-06-14T02:15:27;16.10;99.90
7360;DHT22;3720;48.274;7.796;2023-06-14T02:18:04;16.10;99.90
7360;DHT22;3720;48.274;7.796;2023-06-14T02:20:36;16.10;99.90
7360;DHT22;3720;48.274;7.796;2023-06-14T02:23:08;16.10;99.90
7360;DHT22;3720;48.274;7.796;2023-06-14T02:25:41;15.90;99.90
7360;DHT22;3720;48.274;7.796;2023-06-14T02:28:15;15.80;99.90
7360;DHT22;3720;48.274;7.796;2023-06-14T02:30:47;15.70;99.90
7360;DHT22;3720;48.274;7.796;2023-06-14T02:33:19;15.70;99.90
7360;DHT22;3720;48.274;7.796;2023-06-14T02:35:50;15.70;99.90
7360;DHT22;3720;48.274;7.796;2023-06-14T02:38:23;15.50;99.90
7360;DHT22;3720;48.274;7.796;2023-06-14T02:40:56;15.50;99.90
7360;DHT22;3720;48.274;7.796;2023-06-14T02:43:29;15.40;99.90
7360;DHT22;3720;48.274;7.796;2023-06-14T02:46:01;15.40;99.90
7360;DHT22;3720;48.274;7.796;2023-06-14T02:48:33;15.40;99.90
7360;DHT22;3720;48.274;7.796;2023-06-14T02:51:05;15.30;99.90
7360;DHT22;3720;48.274;7.796;2023-06-14T02:53:38;15.10;99.90
7360;DHT22;3720;48.274;7.796;2023-06-14T02:56:12;15.00;99.90
7360;DHT22;3720;48.274;7.796;2023-06-14T02:58:44;15.10;99.90
7360;DHT22;3720;48.274;7.796;2023-06-14T03:01:16;15.20;99.90
7360;DHT22;3720;48.274;7.796;2023-06-14T03:03:48;15.30;99.90
7360;DHT22;3720;48.274;7.796;2023-06-14T03:06:20;15.30;99.90
7360;DHT22;3720;48.274;7.796;2023-06-14T03:08:55;15.40;99.90
7360;DHT22;3720;48.274;7.796;2023-06-14T03:11:31;15.40;99.90
7360;DHT22;3720;48.274;7.796;2023-06-14T03:14:03;15.40;99.90
7360;DHT22;3720;48.274;7.796;2023-06-14T03:16:35;15.40;99.90
7360;DHT22;3720;48.274;7.796;2023-06-14T03:19:07;15.40;99.90
7360;DHT22;3720;48.274;7.796;2023-06-14T03:21:39;15.40;99.90
7360;DHT22;3720;48.274;7.796;2023-06-14T03:24:15;15.40;99.90
7360;DHT22;3720;48.274;7.796;2023-06-14T03:26:49;15.50;99.90
7360;DHT22;3720;48.274;7.796;2023-06-14T03:29:21;15.60;99.90
7360;DHT22;3720;48.274;7.796;2023-06-14T03:31:57;15.50;99.90
7360;DHT22;3720;48.274;7.796;2023-06-14T03:34:30;15.50;99.90
7360;DHT22;3720;48.274;7.796;2023-06-14T03:37:01;15.40;99.90
7360;DHT22;3720;48.274;7.796;2023-06-14T03:39:33;15.40;99.90
7360;DHT22;3720;48.274;7.796;2023-06-14T03:42:09;15.30;99.90
7360;DHT22;3720;48.274;7.796;2023-06-14T03:44:41;15.20;99.90
7360;DHT22;3720;48.274;7.796;2023-06-14T03:47:12;15.20;99.90
7360;DHT22;3720;48.274;7.796;2023-06-14T03:49:45;15.20;99.90
7360;DHT22;3720;48.274;7.796;2023-06-14T03:52:17;15.20;99.90
7360;DHT22;3720;48.274;7.796;2023-06-14T03:54:49;15.20;99.90
7360;DHT22;3720;48.274;7.796;2023-06-14T03:57:23;15.20;99.90
7360;DHT22;3720;48.274;7.796;2023-06-14T03:59:56;15.30;99.90
7360;DHT22;3720;48.274;7.796;2023-06-14T04:02:28;15.20;99.90
7360;DHT22;3720;48.274;7.796;2023-06-14T04:05:00;15.20;99.90
7360;DHT22;3720;48.274;7.796;2023-06-14T04:07:32;15.20;99.90
7360;DHT22;3720;48.274;7.796;2023-06-14T04:10:11;15.10;99.90
7360;DHT22;3720;48.274;7.796;2023-06-14T04:12:45;14.90;99.90
7360;DHT22;3720;48.274;7.796;2023-06-14T04:15:17;14.70;99.90
7360;DHT22;3720;48.274;7.796;2023-06-14T04:17:48;14.70;99.90
7360;DHT22;3720;48.274;7.796;2023-06-14T04:20:21;14.70;99.90
7360;DHT22;3720;48.274;7.796;2023-06-14T04:22:53;14.80;99.90
7360;DHT22;3720;48.274;7.796;2023-06-14T04:25:27;14.80;99.90
7360;DHT22;3720;48.274;7.796;2023-06-14T04:28:04;14.80;99.90
7360;DHT22;3720;48.274;7.796;2023-06-14T04:30:36;14.80;99.90
7360;DHT22;3720;48.274;7.796;2023-06-14T04:33:09;14.80;99.90
7360;DHT22;3720;48.274;7.796;2023-06-14T04:35:42;14.80;99.90
7360;DHT22;3720;48.274;7.796;2023-06-14T04:38:17;14.90;99.90
7360;DHT22;3720;48.274;7.796;2023-06-14T04:40:49;14.90;99.90
7360;DHT22;3720;48.274;7.796;2023-06-14T04:43:24;14.80;99.90
7360;DHT22;3720;48.274;7.796;2023-06-14T04:45:58;14.80;99.90
7360;DHT22;3720;48.274;7.796;2023-06-14T04:48:32;14.80;99.90
7360;DHT22;3720;48.274;7.796;2023-06-14T04:51:03;14.70;99.90
7360;DHT22;3720;48.274;7.796;2023-06-14T04:53:36;14.70;99.90
7360;DHT22;3720;48.274;7.796;2023-06-14T04:56:08;14.80;99.90
7360;DHT22;3720;48.274;7.796;2023-06-14T04:58:43;14.90;99.90
7360;DHT22;3720;48.274;7.796;2023-06-14T05:01:17;14.90;99.90
7360;DHT22;3720;48.274;7.796;2023-06-14T05:03:48;15.10;99.90
7360;DHT22;3720;48.274;7.796;2023-06-14T05:06:21;15.20;99.90
7360;DHT22;3720;48.274;7.796;2023-06-14T05:08:53;15.40;99.90
7360;DHT22;3720;48.274;7.796;2023-06-14T05:11:25;15.60;99.90
7360;DHT22;3720;48.274;7.796;2023-06-14T05:13:59;15.80;99.90
7360;DHT22;3720;48.274;7.796;2023-06-14T05:16:32;16.00;99.90
7360;DHT22;3720;48.274;7.796;2023-06-14T05:19:04;16.10;99.90
7360;DHT22;3720;48.274;7.796;2023-06-14T05:21:36;16.20;99.90
7360;DHT22;3720;48.274;7.796;2023-06-14T05:24:08;16.30;99.90
7360;DHT22;3720;48.274;7.796;2023-06-14T05:26:41;16.40;99.90
7360;DHT22;3720;48.274;7.796;2023-06-14T05:29:15;16.50;99.90
7360;DHT22;3720;48.274;7.796;2023-06-14T05:31:46;16.60;99.90
7360;DHT22;3720;48.274;7.796;2023-06-14T05:34:18;16.60;99.90
7360;DHT22;3720;48.274;7.796;2023-06-14T05:36:51;16.70;99.90
7360;DHT22;3720;48.274;7.796;2023-06-14T05:39:22;16.80;99.90
7360;DHT22;3720;48.274;7.796;2023-06-14T05:41:55;16.70;99.90
7360;DHT22;3720;48.274;7.796;2023-06-14T05:44:29;16.80;99.90
7360;DHT22;3720;48.274;7.796;2023-06-14T05:47:01;16.90;99.90
7360;DHT22;3720;48.274;7.796;2023-06-14T05:49:32;17.00;99.90
7360;DHT22;3720;48.274;7.796;2023-06-14T05:52:05;17.10;99.90
7360;DHT22;3720;48.274;7.796;2023-06-14T05:54:37;17.20;99.90
7360;DHT22;3720;48.274;7.796;2023-06-14T05:57:10;17.20;99.90
7360;DHT22;3720;48.274;7.796;2023-06-14T05:59:43;17.30;99.90
7360;DHT22;3720;48.274;7.796;2023-06-14T06:02:15;17.40;99.90
7360;DHT22;3720;48.274;7.796;2023-06-14T06:04:47;17.40;99.90
7360;DHT22;3720;48.274;7.796;2023-06-14T06:07:19;17.50;99.90
7360;DHT22;3720;48.274;7.796;2023-06-14T06:09:51;17.60;99.90
7360;DHT22;3720;48.274;7.796;2023-06-14T06:12:23;17.60;99.90
7360;DHT22;3720;48.274;7.796;2023-06-14T06:14:56;17.70;99.90
7360;DHT22;3720;48.274;7.796;2023-06-14T06:17:28;17.80;99.90
7360;DHT22;3720;48.274;7.796;2023-06-14T06:20:00;17.90;99.90
7360;DHT22;3720;48.274;7.796;2023-06-14T06:22:32;18.00;99.90
7360;DHT22;3720;48.274;7.796;2023-06-14T06:25:05;18.00;99.90
7360;DHT22;3720;48.274;7.796;2023-06-14T06:27:37;18.10;99.90
7360;DHT22;3720;48.274;7.796;2023-06-14T06:30:13;18.20;99.90
7360;DHT22;3720;48.274;7.796;2023-06-14T06:32:46;18.20;99.90
7360;DHT22;3720;48.274;7.796;2023-06-14T06:35:17;18.30;99.90
7360;DHT22;3720;48.274;7.796;2023-06-14T06:37:49;18.40;99.90
7360;DHT22;3720;48.274;7.796;2023-06-14T06:40:22;18.50;99.90
7360;DHT22;3720;48.274;7.796;2023-06-14T06:42:54;18.70;99.90
7360;DHT22;3720;48.274;7.796;2023-06-14T06:45:28;18.80;99.90
7360;DHT22;3720;48.274;7.796;2023-06-14T06:47:59;18.90;99.90
7360;DHT22;3720;48.274;7.796;2023-06-14T06:50:32;18.90;99.90
7360;DHT22;3720;48.274;7.796;2023-06-14T06:53:04;19.00;99.90
7360;DHT22;3720;48.274;7.796;2023-06-14T06:55:37;19.10;99.90
7360;DHT22;3720;48.274;7.796;2023-06-14T06:58:09;19.20;99.90
7360;DHT22;3720;48.274;7.796;2023-06-14T07:00:42;19.20;99.90
7360;DHT22;3720;48.274;7.796;2023-06-14T07:03:14;19.30;99.90
7360;DHT22;3720;48.274;7.796;2023-06-14T07:05:46;19.30;99.90
7360;DHT22;3720;48.274;7.796;2023-06-14T07:08:17;19.30;99.90
7360;DHT22;3720;48.274;7.796;2023-06-14T07:10:49;19.30;99.90
7360;DHT22;3720;48.274;7.796;2023-06-14T07:13:21;19.30;99.90
7360;DHT22;3720;48.274;7.796;2023-06-14T07:15:58;19.40;99.90
7360;DHT22;3720;48.274;7.796;2023-06-14T07:18:30;19.50;99.90
7360;DHT22;3720;48.274;7.796;2023-06-14T07:21:02;19.60;99.90
7360;DHT22;3720;48.274;7.796;2023-06-14T07:23:34;19.60;99.90
7360;DHT22;3720;48.274;7.796;2023-06-14T07:26:06;19.70;99.90
7360;DHT22;3720;48.274;7.796;2023-06-14T07:28:38;19.80;99.90
7360;DHT22;3720;48.274;7.796;2023-06-14T07:31:11;20.00;99.90
7360;DHT22;3720;48.274;7.796;2023-06-14T07:33:43;20.10;99.90
7360;DHT22;3720;48.274;7.796;2023-06-14T07:36:15;20.20;99.90
7360;DHT22;3720;48.274;7.796;2023-06-14T07:38:48;20.30;99.90
7360;DHT22;3720;48.274;7.796;2023-06-14T07:41:20;20.40;99.90
7360;DHT22;3720;48.274;7.796;2023-06-14T07:43:52;20.50;99.90
7360;DHT22;3720;48.274;7.796;2023-06-14T07:46:25;20.60;99.90
7360;DHT22;3720;48.274;7.796;2023-06-14T07:48:57;20.70;99.90
7360;DHT22;3720;48.274;7.796;2023-06-14T07:51:29;20.90;99.90
7360;DHT22;3720;48.274;7.796;2023-06-14T07:54:01;21.00;99.90
7360;DHT22;3720;48.274;7.796;2023-06-14T07:56:33;21.10;99.90
7360;DHT22;3720;48.274;7.796;2023-06-14T07:59:06;21.20;99.90
7360;DHT22;3720;48.274;7.796;2023-06-14T08:01:39;21.30;99.90
7360;DHT22;3720;48.274;7.796;2023-06-14T08:04:17;21.40;99.90
7360;DHT22;3720;48.274;7.796;2023-06-14T08:06:49;21.50;99.90
7360;DHT22;3720;48.274;7.796;2023-06-14T08:09:21;21.50;99.90
7360;DHT22;3720;48.274;7.796;2023-06-14T08:11:55;21.60;99.90
7360;DHT22;3720;48.274;7.796;2023-06-14T08:14:26;21.70;99.90
7360;DHT22;3720;48.274;7.796;2023-06-14T08:17:00;21.80;99.90
7360;DHT22;3720;48.274;7.796;2023-06-14T08:19:32;22.00;99.90
7360;DHT22;3720;48.274;7.796;2023-06-14T08:22:05;22.10;99.90
7360;DHT22;3720;48.274;7.796;2023-06-14T08:24:37;22.20;99.90
7360;DHT22;3720;48.274;7.796;2023-06-14T08:27:10;22.30;99.90
7360;DHT22;3720;48.274;7.796;2023-06-14T08:29:41;22.40;99.90
7360;DHT22;3720;48.274;7.796;2023-06-14T08:32:15;22.50;99.90
7360;DHT22;3720;48.274;7.796;2023-06-14T08:34:47;22.60;99.90
7360;DHT22;3720;48.274;7.796;2023-06-14T08:37:19;22.80;99.90
7360;DHT22;3720;48.274;7.796;2023-06-14T08:39:52;22.90;99.60
7360;DHT22;3720;48.274;7.796;2023-06-14T08:42:24;23.10;98.90
7360;DHT22;3720;48.274;7.796;2023-06-14T08:44:56;23.20;98.30
7360;DHT22;3720;48.274;7.796;2023-06-14T08:47:29;23.40;97.70
7360;DHT22;3720;48.274;7.796;2023-06-14T08:50:07;23.50;97.40
7360;DHT22;3720;48.274;7.796;2023-06-14T08:52:41;23.60;97.30
7360;DHT22;3720;48.274;7.796;2023-06-14T08:55:22;23.80;96.10
7360;DHT22;3720;48.274;7.796;2023-06-14T08:57:57;23.90;96.20
7360;DHT22;3720;48.274;7.796;2023-06-14T09:00:29;24.00;94.30
7360;DHT22;3720;48.274;7.796;2023-06-14T09:03:03;24.10;93.40
7360;DHT22;3720;48.274;7.796;2023-06-14T09:05:41;24.20;93.30
7360;DHT22;3720;48.274;7.796;2023-06-14T09:08:14;24.40;92.20
7360;DHT22;3720;48.274;7.796;2023-06-14T09:10:46;24.50;92.30
7360;DHT22;3720;48.274;7.796;2023-06-14T09:13:18;24.70;92.10
7360;DHT22;3720;48.274;7.796;2023-06-14T09:15:50;24.80;90.70
7360;DHT22;3720;48.274;7.796;2023-06-14T09:18:34;25.00;90.20
7360;DHT22;3720;48.274;7.796;2023-06-14T09:21:07;25.20;87.20
7360;DHT22;3720;48.274;7.796;2023-06-14T09:23:40;25.30;87.10
7360;DHT22;3720;48.274;7.796;2023-06-14T09:26:14;25.50;86.80
7360;DHT22;3720;48.274;7.796;2023-06-14T09:28:46;25.70;83.50
7360;DHT22;3720;48.274;7.796;2023-06-14T09:31:19;25.90;82.50
7360;DHT22;3720;48.274;7.796;2023-06-14T09:33:54;26.00;79.60
7360;DHT22;3720;48.274;7.796;2023-06-14T09:36:27;26.20;81.80
7360;DHT22;3720;48.274;7.796;2023-06-14T09:39:00;26.40;79.80
7360;DHT22;3720;48.274;7.796;2023-06-14T09:41:37;26.60;79.90
7360;DHT22;3720;48.274;7.796;2023-06-14T09:44:10;26.60;78.70
7360;DHT22;3720;48.274;7.796;2023-06-14T09:46:43;26.70;77.70
7360;DHT22;3720;48.274;7.796;2023-06-14T09:49:17;26.90;78.10
7360;DHT22;3720;48.274;7.796;2023-06-14T09:51:51;27.10;76.60
7360;DHT22;3720;48.274;7.796;2023-06-14T09:54:25;27.20;76.40
7360;DHT22;3720;48.274;7.796;2023-06-14T09:56:58;27.30;76.10
7360;DHT22;3720;48.274;7.796;2023-06-14T09:59:31;27.50;74.70
7360;DHT22;3720;48.274;7.796;2023-06-14T10:02:09;27.60;75.40
7360;DHT22;3720;48.274;7.796;2023-06-14T10:04:47;27.70;74.20
7360;DHT22;3720;48.274;7.796;2023-06-14T10:07:22;27.80;72.30
7360;DHT22;3720;48.274;7.796;2023-06-14T10:09:54;27.80;69.70
7360;DHT22;3720;48.274;7.796;2023-06-14T10:12:26;27.90;66.80
7360;DHT22;3720;48.274;7.796;2023-06-14T10:14:59;27.90;64.00
7360;DHT22;3720;48.274;7.796;2023-06-14T10:17:41;28.10;64.80
7360;DHT22;3720;48.274;7.796;2023-06-14T10:20:26;28.20;66.10
7360;DHT22;3720;48.274;7.796;2023-06-14T10:23:03;28.40;64.40
7360;DHT22;3720;48.274;7.796;2023-06-14T10:25:39;28.40;64.50
7360;DHT22;3720;48.274;7.796;2023-06-14T10:28:18;28.60;62.50
7360;DHT22;3720;48.274;7.796;2023-06-14T10:31:03;28.70;62.40
7360;DHT22;3720;48.274;7.796;2023-06-14T10:33:36;28.90;59.20
7360;DHT22;3720;48.274;7.796;2023-06-14T10:36:25;28.90;59.30
7360;DHT22;3720;48.274;7.796;2023-06-14T10:39:07;29.00;58.80
7360;DHT22;3720;48.274;7.796;2023-06-14T10:41:39;29.00;56.80
7360;DHT22;3720;48.274;7.796;2023-06-14T10:44:37;29.10;57.20
7360;DHT22;3720;48.274;7.796;2023-06-14T10:47:19;29.30;56.70
7360;DHT22;3720;48.274;7.796;2023-06-14T10:49:54;29.30;57.20
7360;DHT22;3720;48.274;7.796;2023-06-14T10:52:29;29.60;55.80
7360;DHT22;3720;48.274;7.796;2023-06-14T10:55:07;29.60;54.20
7360;DHT22;3720;48.274;7.796;2023-06-14T10:57:43;29.80;56.50
7360;DHT22;3720;48.274;7.796;2023-06-14T11:00:19;29.90;54.50
7360;DHT22;3720;48.274;7.796;2023-06-14T11:06:15;30.10;53.20
7360;DHT22;3720;48.274;7.796;2023-06-14T11:09:11;30.30;51.90
7360;DHT22;3720;48.274;7.796;2023-06-14T11:11:48;30.40;50.70
7360;DHT22;3720;48.274;7.796;2023-06-14T11:14:20;30.50;50.20
7360;DHT22;3720;48.274;7.796;2023-06-14T11:16:52;30.60;48.20
7360;DHT22;3720;48.274;7.796;2023-06-14T11:19:25;30.70;48.30
7360;DHT22;3720;48.274;7.796;2023-06-14T11:21:59;30.80;46.90
7360;DHT22;3720;48.274;7.796;2023-06-14T11:24:33;30.90;48.20
7360;DHT22;3720;48.274;7.796;2023-06-14T11:27:06;31.10;48.40
7360;DHT22;3720;48.274;7.796;2023-06-14T11:29:39;31.20;47.40
7360;DHT22;3720;48.274;7.796;2023-06-14T11:32:19;31.40;47.40
7360;DHT22;3720;48.274;7.796;2023-06-14T11:34:51;31.50;45.10
7360;DHT22;3720;48.274;7.796;2023-06-14T11:37:23;31.50;44.50
7360;DHT22;3720;48.274;7.796;2023-06-14T11:39:58;31.50;44.70
7360;DHT22;3720;48.274;7.796;2023-06-14T11:42:30;31.50;45.00
7360;DHT22;3720;48.274;7.796;2023-06-14T11:45:03;31.50;45.20
7360;DHT22;3720;48.274;7.796;2023-06-14T11:47:36;31.80;44.80
7360;DHT22;3720;48.274;7.796;2023-06-14T11:50:09;32.00;44.60
7360;DHT22;3720;48.274;7.796;2023-06-14T11:52:42;31.90;43.80
7360;DHT22;3720;48.274;7.796;2023-06-14T11:55:17;32.00;44.60
7360;DHT22;3720;48.274;7.796;2023-06-14T11:57:49;31.90;44.70
7360;DHT22;3720;48.274;7.796;2023-06-14T12:00:25;31.90;43.60
7360;DHT22;3720;48.274;7.796;2023-06-14T12:02:58;32.00;43.60
7360;DHT22;3720;48.274;7.796;2023-06-14T12:05:30;32.00;43.40
7360;DHT22;3720;48.274;7.796;2023-06-14T12:08:05;31.90;44.20
7360;DHT22;3720;48.274;7.796;2023-06-14T12:10:42;31.90;42.80
7360;DHT22;3720;48.274;7.796;2023-06-14T12:13:17;31.90;43.10
7360;DHT22;3720;48.274;7.796;2023-06-14T12:15:54;31.70;41.00
7360;DHT22;3720;48.274;7.796;2023-06-14T12:18:33;31.60;43.00
7360;DHT22;3720;48.274;7.796;2023-06-14T12:21:06;31.40;42.20
7360;DHT22;3720;48.274;7.796;2023-06-14T12:23:45;31.50;43.40
7360;DHT22;3720;48.274;7.796;2023-06-14T12:26:20;31.70;43.50
7360;DHT22;3720;48.274;7.796;2023-06-14T12:28:52;31.90;42.40
7360;DHT22;3720;48.274;7.796;2023-06-14T12:31:24;32.00;41.60
7360;DHT22;3720;48.274;7.796;2023-06-14T12:33:57;32.10;41.50
7360;DHT22;3720;48.274;7.796;2023-06-14T12:36:29;32.20;41.40
7360;DHT22;3720;48.274;7.796;2023-06-14T12:39:02;32.30;42.10
7360;DHT22;3720;48.274;7.796;2023-06-14T12:41:36;32.20;40.30
7360;DHT22;3720;48.274;7.796;2023-06-14T12:44:12;32.10;40.60
7360;DHT22;3720;48.274;7.796;2023-06-14T12:46:44;32.10;40.90
7360;DHT22;3720;48.274;7.796;2023-06-14T12:49:16;32.30;41.20
7360;DHT22;3720;48.274;7.796;2023-06-14T12:51:48;32.30;39.80
7360;DHT22;3720;48.274;7.796;2023-06-14T12:54:20;32.30;39.80
7360;DHT22;3720;48.274;7.796;2023-06-14T12:56:57;32.30;40.30
7360;DHT22;3720;48.274;7.796;2023-06-14T12:59:29;32.50;40.20
7360;DHT22;3720;48.274;7.796;2023-06-14T13:02:13;32.50;40.60
7360;DHT22;3720;48.274;7.796;2023-06-14T13:04:45;32.50;39.20
7360;DHT22;3720;48.274;7.796;2023-06-14T13:07:17;32.50;40.20
7360;DHT22;3720;48.274;7.796;2023-06-14T13:09:49;32.60;39.70
7360;DHT22;3720;48.274;7.796;2023-06-14T13:12:22;32.60;39.70
7360;DHT22;3720;48.274;7.796;2023-06-14T13:14:54;32.70;39.50
7360;DHT22;3720;48.274;7.796;2023-06-14T13:17:26;32.70;38.90
7360;DHT22;3720;48.274;7.796;2023-06-14T13:19:58;32.60;39.20
7360;DHT22;3720;48.274;7.796;2023-06-14T13:22:30;32.50;38.80
7360;DHT22;3720;48.274;7.796;2023-06-14T13:25:02;32.40;39.10
7360;DHT22;3720;48.274;7.796;2023-06-14T13:27:36;32.30;38.80
7360;DHT22;3720;48.274;7.796;2023-06-14T13:30:09;32.20;38.60
7360;DHT22;3720;48.274;7.796;2023-06-14T13:32:43;32.30;39.70
7360;DHT22;3720;48.274;7.796;2023-06-14T13:35:15;32.40;38.70
7360;DHT22;3720;48.274;7.796;2023-06-14T13:37:47;32.30;39.10
7360;DHT22;3720;48.274;7.796;2023-06-14T13:40:19;32.30;38.50
7360;DHT22;3720;48.274;7.796;2023-06-14T13:42:52;32.40;38.50
7360;DHT22;3720;48.274;7.796;2023-06-14T13:45:24;32.50;38.20
7360;DHT22;3720;48.274;7.796;2023-06-14T13:47:56;32.60;39.20
7360;DHT22;3720;48.274;7.796;2023-06-14T13:50:27;32.70;39.30
7360;DHT22;3720;48.274;7.796;2023-06-14T13:52:59;32.80;39.00
7360;DHT22;3720;48.274;7.796;2023-06-14T13:55:31;33.00;38.90
7360;DHT22;3720;48.274;7.796;2023-06-14T13:58:04;33.00;38.70
7360;DHT22;3720;48.274;7.796;2023-06-14T14:00:36;33.00;37.80
7360;DHT22;3720;48.274;7.796;2023-06-14T14:03:10;33.10;38.40
7360;DHT22;3720;48.274;7.796;2023-06-14T14:05:42;33.20;38.70
7360;DHT22;3720;48.274;7.796;2023-06-14T14:08:14;33.20;38.30
7360;DHT22;3720;48.274;7.796;2023-06-14T14:10:46;33.20;38.60
7360;DHT22;3720;48.274;7.796;2023-06-14T14:13:19;33.20;38.20
7360;DHT22;3720;48.274;7.796;2023-06-14T14:15:51;33.00;38.80
7360;DHT22;3720;48.274;7.796;2023-06-14T14:18:24;33.00;38.60
7360;DHT22;3720;48.274;7.796;2023-06-14T14:20:56;33.00;37.90
7360;DHT22;3720;48.274;7.796;2023-06-14T14:23:28;33.00;39.40
7360;DHT22;3720;48.274;7.796;2023-06-14T14:26:00;33.00;39.40
7360;DHT22;3720;48.274;7.796;2023-06-14T14:28:35;32.90;38.70
7360;DHT22;3720;48.274;7.796;2023-06-14T14:31:07;32.80;38.00
7360;DHT22;3720;48.274;7.796;2023-06-14T14:33:39;32.60;38.20
7360;DHT22;3720;48.274;7.796;2023-06-14T14:36:11;32.50;37.60
7360;DHT22;3720;48.274;7.796;2023-06-14T14:38:44;32.50;39.20
7360;DHT22;3720;48.274;7.796;2023-06-14T14:41:17;32.40;38.50
7360;DHT22;3720;48.274;7.796;2023-06-14T14:43:51;32.50;39.20
7360;DHT22;3720;48.274;7.796;2023-06-14T14:46:23;32.50;39.20
7360;DHT22;3720;48.274;7.796;2023-06-14T14:48:55;32.50;38.90
7360;DHT22;3720;48.274;7.796;2023-06-14T14:51:26;32.60;38.60
7360;DHT22;3720;48.274;7.796;2023-06-14T14:53:58;32.60;37.70
7360;DHT22;3720;48.274;7.796;2023-06-14T14:56:30;32.50;37.60
7360;DHT22;3720;48.274;7.796;2023-06-14T14:59:04;32.30;37.40
7360;DHT22;3720;48.274;7.796;2023-06-14T15:01:36;32.30;37.80
7360;DHT22;3720;48.274;7.796;2023-06-14T15:04:07;32.30;38.30
7360;DHT22;3720;48.274;7.796;2023-06-14T15:06:39;32.30;38.40
7360;DHT22;3720;48.274;7.796;2023-06-14T15:09:12;32.40;38.50
7360;DHT22;3720;48.274;7.796;2023-06-14T15:11:44;32.30;38.30
7360;DHT22;3720;48.274;7.796;2023-06-14T15:14:17;32.30;38.50
7360;DHT22;3720;48.274;7.796;2023-06-14T15:16:49;32.10;37.20
7360;DHT22;3720;48.274;7.796;2023-06-14T15:19:21;32.00;38.30
7360;DHT22;3720;48.274;7.796;2023-06-14T15:21:53;31.80;38.80
7360;DHT22;3720;48.274;7.796;2023-06-14T15:24:25;31.90;38.60
7360;DHT22;3720;48.274;7.796;2023-06-14T15:26:57;31.90;38.70
7360;DHT22;3720;48.274;7.796;2023-06-14T15:29:30;31.90;38.50
7360;DHT22;3720;48.274;7.796;2023-06-14T15:32:02;31.80;39.20
7360;DHT22;3720;48.274;7.796;2023-06-14T15:34:35;31.70;39.00
7360;DHT22;3720;48.274;7.796;2023-06-14T15:37:09;31.60;38.30
7360;DHT22;3720;48.274;7.796;2023-06-14T15:39:41;31.50;38.70
7360;DHT22;3720;48.274;7.796;2023-06-14T15:42:13;31.50;38.70
7360;DHT22;3720;48.274;7.796;2023-06-14T15:44:46;31.50;38.50
7360;DHT22;3720;48.274;7.796;2023-06-14T15:47:18;31.60;39.00
7360;DHT22;3720;48.274;7.796;2023-06-14T15:49:50;31.60;39.20
7360;DHT22;3720;48.274;7.796;2023-06-14T15:52:22;31.50;38.80
7360;DHT22;3720;48.274;7.796;2023-06-14T15:54:53;31.50;39.30
7360;DHT22;3720;48.274;7.796;2023-06-14T15:57:25;31.50;39.40
7360;DHT22;3720;48.274;7.796;2023-06-14T15:59:58;31.40;39.20
7360;DHT22;3720;48.274;7.796;2023-06-14T16:02:30;31.40;39.20
7360;DHT22;3720;48.274;7.796;2023-06-14T16:05:02;31.30;39.50
7360;DHT22;3720;48.274;7.796;2023-06-14T16:07:34;31.30;38.90
7360;DHT22;3720;48.274;7.796;2023-06-14T16:10:07;31.20;39.70
7360;DHT22;3720;48.274;7.796;2023-06-14T16:12:39;31.20;39.60
7360;DHT22;3720;48.274;7.796;2023-06-14T16:15:13;30.90;39.80
7360;DHT22;3720;48.274;7.796;2023-06-14T16:17:45;30.80;39.70
7360;DHT22;3720;48.274;7.796;2023-06-14T16:20:17;30.80;40.40
7360;DHT22;3720;48.274;7.796;2023-06-14T16:22:49;30.80;40.30
7360;DHT22;3720;48.274;7.796;2023-06-14T16:25:20;30.80;40.50
7360;DHT22;3720;48.274;7.796;2023-06-14T16:27:53;30.80;40.20
7360;DHT22;3720;48.274;7.796;2023-06-14T16:30:26;30.80;40.30
7360;DHT22;3720;48.274;7.796;2023-06-14T16:32:58;30.80;40.80
7360;DHT22;3720;48.274;7.796;2023-06-14T16:35:30;30.80;40.20
7360;DHT22;3720;48.274;7.796;2023-06-14T16:38:02;30.60;39.90
7360;DHT22;3720;48.274;7.796;2023-06-14T16:40:34;30.60;40.40
7360;DHT22;3720;48.274;7.796;2023-06-14T16:43:06;30.50;41.10
7360;DHT22;3720;48.274;7.796;2023-06-14T16:45:39;30.40;41.00